Los Angeles, California
Traffic Map
Current Weather Conditions
Los Angeles, California
Clear Haze
Clear
16°
Feels Like: 16°
Wind Chill: 16° Ceiling: Unl
Heat Index: 16° Visibility: 6mi
Dew Point: 13° Wind: 0mph
Humidity: 83% Direction: ° ()
Pressure: 30.04in Gusts: 0mph
Raw Report DataKCQT 210647Z AUTO 00000KT 6SM HZ CLR 16/13 A3004 RMK AO2 SLP172 T01610133
Traffic Incident Summary
Active as of:
Severity:
Category:
InformationThere was an issue retrieving the traffic information for this location. Please try a different location or try again shortly.
Advertisements
At Last! Intellicast now available for iPhone and Android